Time,TemperatureF,DewpointF,PressureIn,WindDirection,WindDirectionDegrees,WindSpeedMPH,WindSpeedGustMPH,Humidity,HourlyPrecipIn,Conditions,Clouds,dailyrainin,SoftwareType,DateUTC
2013-09-14 00:08:00,51.2,50.0,29.58,West,265,0.0,0.0,97,0.00,,,0.21,weatherlink.com 1.10,2013-09-14 08:08:00,
2013-09-14 00:23:00,51.1,50.0,29.58,West,264,0.0,0.0,97,0.00,,,0.21,weatherlink.com 1.10,2013-09-14 08:23:00,
2013-09-14 00:38:00,51.1,50.0,29.58,West,265,0.0,0.0,97,0.00,,,0.21,weatherlink.com 1.10,2013-09-14 08:38:00,
2013-09-14 00:53:00,50.9,50.0,29.57,West,265,0.0,0.0,97,0.00,,,0.21,weatherlink.com 1.10,2013-09-14 08:53:00,
2013-09-14 01:08:00,50.8,50.0,29.57,West,265,0.0,0.0,97,0.00,,,0.21,weatherlink.com 1.10,2013-09-14 09:08:00,
2013-09-14 01:23:00,50.7,50.0,29.57,West,265,0.0,1.0,97,0.01,,,0.22,weatherlink.com 1.10,2013-09-14 09:23:00,
2013-09-14 01:38:00,50.6,50.0,29.57,West,265,0.0,0.0,97,0.01,,,0.22,weatherlink.com 1.10,2013-09-14 09:38:00,
2013-09-14 01:53:00,50.7,50.0,29.56,West,265,0.0,0.0,97,0.01,,,0.22,weatherlink.com 1.10,2013-09-14 09:53:00,
2013-09-14 02:08:00,50.6,50.0,29.56,West,266,0.0,1.0,97,0.01,,,0.22,weatherlink.com 1.10,2013-09-14 10:08:00,
2013-09-14 02:23:00,50.5,50.0,29.56,SE,136,0.0,0.0,98,0.00,,,0.22,weatherlink.com 1.10,2013-09-14 10:23:00,
2013-09-14 02:38:00,50.4,50.0,29.56,SE,135,0.0,2.0,98,0.00,,,0.22,weatherlink.com 1.10,2013-09-14 10:38:00,
2013-09-14 02:53:00,50.3,50.0,29.56,SE,135,0.0,1.0,98,0.00,,,0.22,weatherlink.com 1.10,2013-09-14 10:53:00,
2013-09-14 03:08:00,50.0,50.0,29.56,East,85,0.0,3.0,98,0.00,,,0.00,weatherlink.com 1.10,2013-09-14 11:08:00,
2013-09-14 03:23:00,49.6,49.0,29.56,ENE,62,2.0,2.0,97,0.00,,,0.00,weatherlink.com 1.10,2013-09-14 11:23:00,
2013-09-14 03:38:00,49.4,49.0,29.56,ESE,114,1.0,2.0,98,0.00,,,0.00,weatherlink.com 1.10,2013-09-14 11:38:00,
2013-09-14 03:53:00,48.8,48.0,29.56,ESE,121,0.0,2.0,98,0.00,,,0.00,weatherlink.com 1.10,2013-09-14 11:53:00,
2013-09-14 04:08:00,48.5,48.0,29.55,East,82,1.0,4.0,98,0.00,,,0.00,weatherlink.com 1.10,2013-09-14 12:08:00,
2013-09-14 04:23:00,48.2,48.0,29.55,East,85,1.0,4.0,98,0.00,,,0.00,weatherlink.com 1.10,2013-09-14 12:23:00,
2013-09-14 04:38:00,48.1,48.0,29.55,East,89,1.0,4.0,98,0.00,,,0.00,weatherlink.com 1.10,2013-09-14 12:38:00,
2013-09-14 04:53:00,47.8,47.0,29.55,East,98,1.0,1.0,98,0.00,,,0.00,weatherlink.com 1.10,2013-09-14 12:53:00,
2013-09-14 05:08:00,47.8,47.0,29.54,ESE,112,0.0,2.0,98,0.00,,,0.00,weatherlink.com 1.10,2013-09-14 13:08:00,
2013-09-14 05:24:00,47.2,47.0,29.54,ENE,77,1.0,2.0,98,0.00,,,0.00,weatherlink.com 1.10,2013-09-14 13:24:00,
2013-09-14 05:39:00,47.2,47.0,29.54,East,81,0.0,5.0,98,0.00,,,0.00,weatherlink.com 1.10,2013-09-14 13:39:00,
2013-09-14 05:54:00,47.0,47.0,29.54,ENE,76,1.0,2.0,98,0.00,,,0.00,weatherlink.com 1.10,2013-09-14 13:54:00,
2013-09-14 06:09:00,46.8,46.0,29.54,NNE,33,2.0,3.0,98,0.00,,,0.00,weatherlink.com 1.10,2013-09-14 14:09:00,
2013-09-14 06:24:00,46.4,46.0,29.54,ENE,64,0.0,2.0,98,0.00,,,0.00,weatherlink.com 1.10,2013-09-14 14:24:00,
2013-09-14 06:39:00,46.3,46.0,29.54,ENE,68,0.0,1.0,98,0.00,,,0.00,weatherlink.com 1.10,2013-09-14 14:39:00,
2013-09-14 06:54:00,46.4,46.0,29.54,ENE,74,0.0,2.0,98,0.00,,,0.00,weatherlink.com 1.10,2013-09-14 14:54:00,
2013-09-14 07:09:00,46.4,46.0,29.53,ENE,73,2.0,4.0,98,0.00,,,0.00,weatherlink.com 1.10,2013-09-14 15:09:00,
2013-09-14 07:24:00,46.3,46.0,29.53,East,92,1.0,3.0,98,0.00,,,0.00,weatherlink.com 1.10,2013-09-14 15:24:00,
2013-09-14 07:39:00,46.1,46.0,29.53,ENE,73,2.0,4.0,98,0.00,,,0.00,weatherlink.com 1.10,2013-09-14 15:39:00,
2013-09-14 07:54:00,45.6,45.0,29.52,East,83,2.0,4.0,98,0.00,,,0.00,weatherlink.com 1.10,2013-09-14 15:54:00,
2013-09-14 08:09:00,45.2,45.0,29.52,East,88,1.0,3.0,98,0.00,,,0.00,weatherlink.com 1.10,2013-09-14 16:09:00,
2013-09-14 08:24:00,45.0,45.0,29.52,ENE,70,0.0,4.0,98,0.00,,,0.00,weatherlink.com 1.10,2013-09-14 16:24:00,
2013-09-14 08:39:00,44.8,44.0,29.52,ENE,60,1.0,4.0,98,0.00,,,0.00,weatherlink.com 1.10,2013-09-14 16:39:00,
2013-09-14 08:54:00,44.8,44.0,29.53,NNE,33,1.0,3.0,98,0.00,,,0.00,weatherlink.com 1.10,2013-09-14 16:54:00,
2013-09-14 09:09:00,44.7,44.0,29.52,NNE,23,3.0,5.0,98,0.00,,,0.00,weatherlink.com 1.10,2013-09-14 17:09:00,
2013-09-14 09:24:00,44.3,44.0,29.52,ENE,69,1.0,5.0,98,0.00,,,0.00,weatherlink.com 1.10,2013-09-14 17:24:00,
2013-09-14 09:39:00,44.5,44.0,29.52,ENE,60,2.0,3.0,98,0.00,,,0.00,weatherlink.com 1.10,2013-09-14 17:39:00,
2013-09-14 09:54:00,44.7,44.0,29.52,ESE,106,0.0,4.0,98,0.00,,,0.00,weatherlink.com 1.10,2013-09-14 17:54:00,
2013-09-14 10:09:00,44.9,44.0,29.52,ENE,75,1.0,5.0,98,0.00,,,0.00,weatherlink.com 1.10,2013-09-14 18:09:00,
2013-09-14 10:24:00,45.4,45.0,29.52,East,89,0.0,3.0,98,0.00,,,0.00,weatherlink.com 1.10,2013-09-14 18:24:00,
2013-09-14 10:39:00,45.7,45.0,29.53,ENE,73,1.0,4.0,98,0.00,,,0.00,weatherlink.com 1.10,2013-09-14 18:39:00,
2013-09-14 10:54:00,47.1,47.0,29.53,East,98,1.0,3.0,98,0.00,,,0.00,weatherlink.com 1.10,2013-09-14 18:54:00,
2013-09-14 11:09:00,48.0,48.0,29.52,SE,141,1.0,4.0,99,0.00,,,0.00,weatherlink.com 1.10,2013-09-14 19:09:00,
2013-09-14 11:24:00,48.9,49.0,29.52,South,187,0.0,2.0,99,0.00,,,0.00,weatherlink.com 1.10,2013-09-14 19:24:00,
2013-09-14 11:39:00,50.3,50.0,29.52,NNW,342,0.0,2.0,99,0.00,,,0.00,weatherlink.com 1.10,2013-09-14 19:39:00,
2013-09-14 11:54:00,50.3,49.0,29.52,East,89,1.0,3.0,95,0.00,,,0.00,weatherlink.com 1.10,2013-09-14 19:54:00,
2013-09-14 12:09:00,51.0,49.0,29.52,NE,37,0.0,4.0,92,0.00,,,0.00,weatherlink.com 1.10,2013-09-14 20:09:00,
2013-09-14 12:24:00,52.2,49.0,29.52,East,101,1.0,3.0,90,0.00,,,0.00,weatherlink.com 1.10,2013-09-14 20:24:00,
2013-09-14 12:39:00,53.2,50.0,29.52,East,80,3.0,4.0,87,0.00,,,0.00,weatherlink.com 1.10,2013-09-14 20:39:00,
2013-09-14 12:54:00,54.3,50.0,29.52,NE,49,2.0,5.0,85,0.00,,,0.00,weatherlink.com 1.10,2013-09-14 20:54:00,
2013-09-14 13:09:00,55.5,50.0,29.51,North,6,0.0,5.0,83,0.00,,,0.00,weatherlink.com 1.10,2013-09-14 21:09:00,
2013-09-14 13:24:00,56.4,51.0,29.51,East,83,1.0,4.0,81,0.00,,,0.00,weatherlink.com 1.10,2013-09-14 21:24:00,
2013-09-14 13:39:00,56.8,50.0,29.51,NE,35,3.0,5.0,79,0.00,,,0.00,weatherlink.com 1.10,2013-09-14 21:39:00,
2013-09-14 13:54:00,57.2,51.0,29.50,ENE,73,3.0,5.0,79,0.00,,,0.00,weatherlink.com 1.10,2013-09-14 21:54:00,
2013-09-14 14:09:00,57.5,50.0,29.50,NNE,18,3.0,6.0,75,0.00,,,0.00,weatherlink.com 1.10,2013-09-14 22:09:00,
2013-09-14 14:25:00,58.7,50.0,29.50,NNE,23,2.0,6.0,73,0.00,,,0.00,weatherlink.com 1.10,2013-09-14 22:25:00,
2013-09-14 14:40:00,58.9,51.0,29.50,ESE,116,3.0,4.0,74,0.00,,,0.00,weatherlink.com 1.10,2013-09-14 22:40:00,
2013-09-14 14:55:00,59.4,51.0,29.50,ENE,59,0.0,4.0,74,0.00,,,0.00,weatherlink.com 1.10,2013-09-14 22:55:00,
2013-09-14 15:10:00,59.8,51.0,29.49,North,2,5.0,7.0,72,0.00,,,0.00,weatherlink.com 1.10,2013-09-14 23:10:00,
2013-09-14 15:25:00,59.7,51.0,29.49,NNE,33,0.0,4.0,72,0.00,,,0.00,weatherlink.com 1.10,2013-09-14 23:25:00,
2013-09-14 15:40:00,59.9,50.0,29.49,ENE,73,2.0,5.0,71,0.00,,,0.00,weatherlink.com 1.10,2013-09-14 23:40:00,
2013-09-14 15:55:00,60.4,51.0,29.49,ESE,113,0.0,4.0,71,0.00,,,0.00,weatherlink.com 1.10,2013-09-14 23:55:00,
2013-09-14 16:10:00,60.6,50.0,29.49,East,85,2.0,9.0,69,0.00,,,0.00,weatherlink.com 1.10,2013-09-15 00:10:00,
2013-09-14 16:25:00,60.9,51.0,29.49,ENE,59,1.0,7.0,69,0.00,,,0.00,weatherlink.com 1.10,2013-09-15 00:25:00,
2013-09-14 16:40:00,61.6,51.0,29.48,ENE,64,3.0,5.0,69,0.00,,,0.00,weatherlink.com 1.10,2013-09-15 00:40:00,
2013-09-14 16:55:00,62.1,51.0,29.48,East,79,2.0,4.0,67,0.00,,,0.00,weatherlink.com 1.10,2013-09-15 00:55:00,
2013-09-14 17:10:00,62.3,52.0,29.48,ESE,117,0.0,3.0,68,0.00,,,0.00,weatherlink.com 1.10,2013-09-15 01:10:00,
2013-09-14 17:25:00,63.0,52.0,29.48,WNW,288,2.0,5.0,68,0.00,,,0.00,weatherlink.com 1.10,2013-09-15 01:25:00,
2013-09-14 17:40:00,61.1,53.0,29.48,West,260,4.0,6.0,74,0.00,,,0.00,weatherlink.com 1.10,2013-09-15 01:40:00,
2013-09-14 17:55:00,60.4,53.0,29.48,WSW,258,2.0,6.0,76,0.00,,,0.00,weatherlink.com 1.10,2013-09-15 01:55:00,
2013-09-14 18:10:00,60.3,53.0,29.48,NW,316,4.0,6.0,76,0.00,,,0.00,weatherlink.com 1.10,2013-09-15 02:10:00,
2013-09-14 18:25:00,59.9,53.0,29.48,WNW,301,3.0,6.0,77,0.00,,,0.00,weatherlink.com 1.10,2013-09-15 02:25:00,
2013-09-14 18:40:00,59.6,52.0,29.48,WNW,293,5.0,5.0,76,0.00,,,0.00,weatherlink.com 1.10,2013-09-15 02:40:00,
2013-09-14 18:55:00,59.2,52.0,29.48,WNW,303,1.0,4.0,77,0.00,,,0.00,weatherlink.com 1.10,2013-09-15 02:55:00,
2013-09-14 19:10:00,59.0,51.0,29.49,WNW,289,1.0,4.0,76,0.00,,,0.00,weatherlink.com 1.10,2013-09-15 03:10:00,
2013-09-14 19:25:00,59.7,52.0,29.49,West,277,3.0,3.0,75,0.00,,,0.00,weatherlink.com 1.10,2013-09-15 03:25:00,
2013-09-14 19:40:00,59.9,52.0,29.49,West,261,1.0,3.0,75,0.00,,,0.00,weatherlink.com 1.10,2013-09-15 03:40:00,
2013-09-14 19:55:00,60.0,52.0,29.49,WNW,285,0.0,3.0,76,0.00,,,0.00,weatherlink.com 1.10,2013-09-15 03:55:00,
2013-09-14 20:10:00,59.4,52.0,29.49,WNW,286,0.0,2.0,77,0.00,,,0.00,weatherlink.com 1.10,2013-09-15 04:10:00,
2013-09-14 20:25:00,58.6,52.0,29.49,WNW,286,0.0,3.0,79,0.00,,,0.00,weatherlink.com 1.10,2013-09-15 04:25:00,
2013-09-14 20:40:00,57.7,51.0,29.49,WNW,285,0.0,1.0,79,0.00,,,0.00,weatherlink.com 1.10,2013-09-15 04:40:00,
2013-09-14 20:55:00,57.2,52.0,29.50,WNW,285,0.0,1.0,82,0.00,,,0.00,weatherlink.com 1.10,2013-09-15 04:55:00,
2013-09-14 21:10:00,56.6,52.0,29.50,WNW,286,0.0,1.0,85,0.00,,,0.00,weatherlink.com 1.10,2013-09-15 05:10:00,
2013-09-14 21:25:00,56.6,52.0,29.50,WNW,287,0.0,1.0,85,0.00,,,0.00,weatherlink.com 1.10,2013-09-15 05:25:00,
2013-09-14 21:40:00,56.1,52.0,29.50,WNW,287,0.0,0.0,87,0.00,,,0.00,weatherlink.com 1.10,2013-09-15 05:40:00,
2013-09-14 21:55:00,55.7,52.0,29.50,NNE,23,1.0,2.0,88,0.00,,,0.00,weatherlink.com 1.10,2013-09-15 05:55:00,
2013-09-14 22:10:00,55.8,52.0,29.51,East,82,0.0,2.0,86,0.00,,,0.00,weatherlink.com 1.10,2013-09-15 06:10:00,
2013-09-14 22:25:00,55.0,52.0,29.51,NE,48,1.0,3.0,88,0.00,,,0.00,weatherlink.com 1.10,2013-09-15 06:25:00,
2013-09-14 22:40:00,54.5,51.0,29.51,NE,54,0.0,1.0,88,0.00,,,0.00,weatherlink.com 1.10,2013-09-15 06:40:00,
2013-09-14 22:55:00,54.1,51.0,29.52,North,358,0.0,3.0,89,0.00,,,0.00,weatherlink.com 1.10,2013-09-15 06:55:00,
2013-09-14 23:10:00,53.8,50.0,29.51,NE,50,0.0,2.0,86,0.00,,,0.00,weatherlink.com 1.10,2013-09-15 07:10:00,
2013-09-14 23:25:00,53.7,51.0,29.52,SE,139,0.0,2.0,89,0.00,,,0.00,weatherlink.com 1.10,2013-09-15 07:25:00,
2013-09-14 23:40:00,53.3,50.0,29.52,SE,146,0.0,0.0,89,0.00,,,0.00,weatherlink.com 1.10,2013-09-15 07:40:00,
2013-09-14 23:55:00,52.8,50.0,29.52,SSE,147,0.0,1.0,89,0.00,,,0.00,weatherlink.com 1.10,2013-09-15 07:55:00,